Flight Track Log - Related Links

Times and Time Zones

All times are in EDT time to prevent confusion due to time zone crossing. See the ASQ4633 flight status page for this flight to view local times or setup timezone preferences in your user account.


Time Position Orientation Groundspeed Altitude Reporting Facility
EDT Latitude Longitude Course Direction KTS MPH feet Rate Location/Type
Wed 07:29:45 PM 40.7517 -112.0178 103° East 191 220 6,000  Level Salt Lake Center
Wed 07:30:41 PM 40.7736 -112.0892 292° West 268 308 6,800 1,538 Climbing Salt Lake Center
Wed 07:31:42 PM 40.8311 -112.1631 316° Northwest 287 330 9,000 2,146 Climbing Salt Lake Center
Wed 07:32:00 PM 41.0110 -112.1564 79° East  Level FlightAware Approximate
Wed 07:32:44 PM 40.9022 -112.2136 332° Northwest 304 350 11,200  Level Salt Lake Center
Wed 07:33:00 PM 40.9977 -112.0098 114° Southeast  Level FlightAware Approximate
Wed 07:33:46 PM 40.9883 -112.1919 11° North 324 373 13,200  Level Salt Lake Center
Wed 07:34:00 PM 40.9651 -111.8659 103° East  Level FlightAware Approximate
Wed 07:34:48 PM 40.9972 -112.0811 84° East 322 371 14,800  Level Salt Lake Center
Wed 07:35:00 PM 40.9386 -111.7205 103° East  Level FlightAware Approximate
Wed 07:35:50 PM 40.9811 -111.9564 100° East 353 406 15,700  Level Salt Lake Center
Wed 07:36:52 PM 40.9600 -111.7978 100° East 380 437 17,500 1,742 Climbing Salt Lake Center
Wed 07:37:54 PM 40.9433 -111.6636 99° East 378 435 19,300 1,610 Climbing Salt Lake Center
Wed 07:38:55 PM 40.9258 -111.5272 100° East 381 438 20,800 1,415 Climbing Salt Lake Center
Wed 07:39:57 PM 40.9078 -111.3872 100° East 387 445 22,200 1,355 Climbing Salt Lake Center
Wed 07:40:59 PM 40.8861 -111.2131 99° East 403 464 23,600 1,258 Climbing Salt Lake Center
Wed 07:42:01 PM 40.8686 -111.0619 99° East 415 478 24,800 1,161 Climbing Salt Lake Center
Wed 07:43:03 PM 40.8500 -110.9089 99° East 424 488 26,000 1,171 Climbing Salt Lake Center
Wed 07:44:04 PM 40.8317 -110.7558 99° East 424 488 27,200 1,220 Climbing Salt Lake Center
Wed 07:45:06 PM 40.8106 -110.5800 99° East 430 495 28,500 1,210 Climbing Salt Lake Center
Wed 07:46:08 PM 40.7914 -110.4289 99° East 436 502 29,700 1,113 Climbing Salt Lake Center
Wed 07:47:10 PM 40.7683 -110.2506 100° East 442 509 30,800 629 Climbing Salt Lake Center
Wed 07:48:12 PM 40.7503 -110.1072 99° East 445 512 31,000 97 Climbing Salt Lake Center
Wed 07:49:14 PM 40.7322 -109.9128 97° East 475 547 31,000  Level Salt Lake Center
Wed 07:50:16 PM 40.7200 -109.7381 95° East 495 570 31,000  Level Salt Lake Center
Wed 07:51:17 PM 40.7061 -109.5297 95° East 508 585 31,000  Level Salt Lake Center
Wed 07:52:19 PM 40.6919 -109.3522 96° East 509 586 31,000  Level Salt Lake Center
Wed 07:53:21 PM 40.6781 -109.1700 96° East 505 581 31,000  Level Salt Lake Center
Wed 07:54:09 PM 40.6658 -108.9956 95° East 505 581 31,000  Level Denver Center
Wed 07:55:11 PM 40.6519 -108.8169 96° East 510 587 31,000  Level Denver Center
Wed 07:56:13 PM 40.6367 -108.6400 96° East 508 585 31,000  Level Denver Center
Wed 07:57:14 PM 40.6206 -108.4325 96° East 508 585 31,000  Level Denver Center
Wed 07:58:16 PM 40.6047 -108.2556 97° East 507 583 31,000  Level Denver Center
Wed 07:59:18 PM 40.5867 -108.0517 97° East 503 579 31,000  Level Denver Center
Wed 08:00:20 PM 40.5717 -107.8744 96° East 506 582 31,000  Level Denver Center
Wed 08:01:34 PM 40.5500 -107.6369 97° East 511 588 31,000  Level Denver Center
Wed 08:02:49 PM 40.5283 -107.3997 97° East 513 590 31,000  Level Denver Center
Wed 08:03:51 PM 40.5158 -107.2214 95° East 512 589 31,000  Level Denver Center
Wed 08:04:53 PM 40.5067 -107.0492 94° East 512 589 31,000  Level Denver Center
Wed 08:05:54 PM 40.4961 -106.8622 94° East 511 588 31,000  Level Denver Center
Wed 08:06:56 PM 40.4842 -106.6375 94° East 512 589 31,000  Level Denver Center
Wed 08:07:58 PM 40.4725 -106.4497 95° East 509 586 31,000 -48 Level Denver Center
Wed 08:09:00 PM 40.4608 -106.2736 95° East 506 582 30,900 -1,258 Descending Denver Center
Wed 08:10:02 PM 40.4528 -106.0964 93° East 495 570 28,400 -2,468 Descending Denver Center
Wed 08:11:04 PM 40.4356 -105.9239 97° East 480 552 25,800 -2,710 Descending Denver Center
Wed 08:12:06 PM 40.4044 -105.7350 102° East 445 512 22,800 -2,419 Descending Denver Center
Wed 08:13:08 PM 40.3819 -105.5919 102° East 407 468 20,800 -1,790 Descending Denver Center
Wed 08:14:10 PM 40.3608 -105.4636 102° East 363 418 19,100 -1,548 Descending Denver Center
Wed 08:15:12 PM 40.3567 -105.3231 92° East 353 406 17,600 -1,500 Descending Denver Center
Wed 08:16:14 PM 40.3575 -105.1925 89° East 359 413 16,000 -1,210 Descending Denver Center
Wed 08:17:16 PM 40.3594 -105.0825 89° East 306 352 15,100 -1,210 Descending Denver Center
Wed 08:18:18 PM 40.3625 -104.9728 88° East 283 326 13,500 -1,355 Descending Denver Center
Wed 08:19:20 PM 40.3606 -104.8747 91° East 273 314 12,300 -1,268 Descending Denver Center
Wed 08:20:21 PM 40.3361 -104.7900 111° Southeast 254 292 10,900 -1,122 Descending Denver Center
Wed 08:21:23 PM 40.2781 -104.7428 148° Southeast 232 267 10,000 -435 Descending Denver Center
Wed 08:22:25 PM 40.2264 -104.7122 156° South 204 235 10,000  Level Denver Center
Wed 08:23:27 PM 40.1694 -104.6825 158° South 203 234 10,000 -339 Level Denver Center
Wed 08:24:29 PM 40.1150 -104.6850 182° South 185 213 9,300 -774 Descending Denver Center
Wed 08:25:31 PM 40.0658 -104.6850 180° South 177 204 8,400 -919 Descending Denver Center
Wed 08:26:33 PM 40.0114 -104.6853 180° South 180 207 7,400 -968 Descending Denver Center

Login

Don't have an account? Register now (free) for customized features, flight alerts, and more!